Millau, France

6:59 AM CEST on July 30, 2016 (GMT +0200)
Resuenhe | | Change Station

Elev 1998 ft 44.41 °N, 2.88 °E | Updated 4 minutes ago

Thunderstorm
Thunderstorm
58.1 °F
Feels Like 58.1 °F
N
1.2
Wind Variable Wind from ENE
Gusts 3.1 mph

Today
High -- | Low -- °F
--% Chance of Precip.
Yesterday
High -- | Low -- °F
Precip. -- in
Pressure 30.01 in
Visibility 6.2 miles
Clouds
Dew Point 53 °F
Humidity 84%
Rainfall 0.00 in
Snow Depth Not available.
6:33 AM 9:14 PM
Waning Crescent, 16% visible
METAR LFCK 300430Z AUTO 14006KT 100V180 9999 TS ///CB 19/17 Q1016
Pressure 30.01 in
Visibility 6.2 miles
Clouds
Dew Point 53 °F
Humidity 84%
Rainfall 0.00 in
Snow Depth Not available.
6:33 AM 9:14 PM
Waning Crescent, 16% visible
METAR LFCK 300430Z AUTO 14006KT 100V180 9999 TS ///CB 19/17 Q1016

10-Day Weather Forecast

×

Almanac

Astronomy

Jul. 30, 2016 Rise Set
Actual Time
Civil Twilight
Nautical Twilight
Astronomical Twilight
Moon
Length of Visible Light
Length of Day
Tomorrow will be .
, % of the Moon is Illuminated

Today's Extremes

Country Highs Country Lows

Community

WunderPhotos

Upload Photos

1,928,506 photos uploaded!

WunderBlog® & News

Nearby

Air Quality

  Air Quality AQ Index Pollutant
Not available.

Snow Depth

Station Depth Elevation

Earthquake Activity

City Distance Mag. Time & Date
Minimum magnitude displayed is 2.5.

Coastal Water Temperatures

Place Temperature

Stations

Nearby Weather Stations

Station Location Temp. Windchill Dew Point Humidity Wind Precip. Elev Updated Type